This is the latest recevied weather packets stored in our database for station/object KJ4YLO. If no packets are shown the sender has not sent any weather packets the latest 1 day(s).
| Time | Temp. | Humidity | Pressure | Rain* | Wind** | Luminosity | Snow |
|---|---|---|---|---|---|---|---|
| 1778032081 | 17.22° C | 67% | 1014.8 hPa | 0 mm | - | 0 W/m² | - |
| 1778031778 | 17.78° C | 68% | 1014.8 hPa | 0 mm | - | 0 W/m² | - |
| 1778031475 | 17.78° C | 67% | 1014.8 hPa | 0 mm | - | 0 W/m² | - |
| 1778031172 | 17.78° C | 67% | 1014.8 hPa | 0 mm | - | 0 W/m² | - |
| 1778030565 | 18.33° C | 66% | 1014.8 hPa | 0 mm | - | 0 W/m² | - |
| 1778030263 | 18.89° C | 65% | 1014.8 hPa | 0 mm | - | 0 W/m² | - |
| 1778029959 | 18.89° C | 63% | 1014.8 hPa | 0 mm | - | 0 W/m² | - |
| 1778029657 | 18.89° C | 63% | 1015.1 hPa | 0 mm | - | 0 W/m² | - |
| 1778029354 | 18.89° C | 63% | 1015.5 hPa | 0 mm | - | 0 W/m² | - |
| 1778028748 | 20° C | 62% | 1015.5 hPa | 0 mm | - | 0 W/m² | - |
| 1778028444 | 20° C | 57% | 1015.1 hPa | 0 mm | - | 0 W/m² | - |
| 1778028142 | 20° C | 55% | 1015.1 hPa | 0 mm | - | 0 W/m² | - |
| 1778027230 | 20.56° C | 55% | 1014.8 hPa | 0 mm | - | 0 W/m² | - |
| 1778026927 | 21.11° C | 51% | 1014.8 hPa | 0 mm | - | 0 W/m² | - |
| 1778026320 | 21.11° C | 48% | 1015.1 hPa | 0 mm | - | 2 W/m² | - |
| 1778026017 | 21.67° C | 49% | 1014.8 hPa | 0 mm | - | 4 W/m² | - |
| 1778024806 | 22.22° C | 47% | 1015.1 hPa | 0 mm | - | 19 W/m² | - |
| 1778024503 | 22.78° C | 45% | 1015.1 hPa | 0 mm | - | 21 W/m² | - |
| 1778024200 | 22.78° C | 42% | 1014.8 hPa | 0 mm | - | 29 W/m² | - |
| 1778022688 | 23.33° C | 41% | 1015.1 hPa | 0 mm | - | 34 W/m² | - |
| 1778021778 | 23.89° C | 40% | 1015.1 hPa | 0 mm | - | 30 W/m² | - |
| 1778019048 | 26.67° C | 31% | 1014.8 hPa | 0 mm | - | 235 W/m² | - |
* Rain latest hour (hover to see other rain measurements)
** Current wind speed in m/s (hover to see current wind gust speed)